sensor_id;sensor_type;location;lat;lon;timestamp;P1;durP1;ratioP1;P2;durP2;ratioP2
23206;SDS011;11773;52.570;13.052;2023-11-18T00:00:40;1.13;;;1.07;;
23206;SDS011;11773;52.570;13.052;2023-11-18T00:03:09;1.47;;;1.37;;
23206;SDS011;11773;52.570;13.052;2023-11-18T00:05:39;1.40;;;1.30;;
23206;SDS011;11773;52.570;13.052;2023-11-18T00:08:09;1.53;;;1.43;;
23206;SDS011;11773;52.570;13.052;2023-11-18T00:10:38;0.97;;;0.90;;
23206;SDS011;11773;52.570;13.052;2023-11-18T00:13:08;1.03;;;1.03;;
23206;SDS011;11773;52.570;13.052;2023-11-18T00:15:38;0.63;;;0.63;;
23206;SDS011;11773;52.570;13.052;2023-11-18T00:18:07;1.10;;;1.10;;
23206;SDS011;11773;52.570;13.052;2023-11-18T00:20:37;1.80;;;1.70;;
23206;SDS011;11773;52.570;13.052;2023-11-18T00:23:07;1.50;;;1.40;;
23206;SDS011;11773;52.570;13.052;2023-11-18T00:25:37;1.50;;;1.40;;
23206;SDS011;11773;52.570;13.052;2023-11-18T00:28:07;1.73;;;1.53;;
23206;SDS011;11773;52.570;13.052;2023-11-18T00:30:37;1.50;;;1.40;;
23206;SDS011;11773;52.570;13.052;2023-11-18T00:33:07;1.40;;;1.30;;
23206;SDS011;11773;52.570;13.052;2023-11-18T00:35:36;1.40;;;1.30;;
23206;SDS011;11773;52.570;13.052;2023-11-18T00:38:06;1.20;;;1.10;;
23206;SDS011;11773;52.570;13.052;2023-11-18T00:40:37;1.03;;;1.03;;
23206;SDS011;11773;52.570;13.052;2023-11-18T00:43:07;0.80;;;0.80;;
23206;SDS011;11773;52.570;13.052;2023-11-18T00:45:36;1.40;;;1.30;;
23206;SDS011;11773;52.570;13.052;2023-11-18T00:48:07;1.17;;;1.17;;
23206;SDS011;11773;52.570;13.052;2023-11-18T00:50:37;1.00;;;1.00;;
23206;SDS011;11773;52.570;13.052;2023-11-18T00:53:06;1.13;;;1.13;;
23206;SDS011;11773;52.570;13.052;2023-11-18T00:55:37;1.07;;;1.07;;
23206;SDS011;11773;52.570;13.052;2023-11-18T00:58:08;1.40;;;1.30;;
23206;SDS011;11773;52.570;13.052;2023-11-18T01:00:38;1.40;;;1.30;;
23206;SDS011;11773;52.570;13.052;2023-11-18T01:03:07;1.40;;;1.30;;
23206;SDS011;11773;52.570;13.052;2023-11-18T01:05:37;1.70;;;1.60;;
23206;SDS011;11773;52.570;13.052;2023-11-18T01:08:07;1.20;;;1.13;;
23206;SDS011;11773;52.570;13.052;2023-11-18T01:10:37;1.40;;;1.30;;
23206;SDS011;11773;52.570;13.052;2023-11-18T01:13:07;1.40;;;1.30;;
23206;SDS011;11773;52.570;13.052;2023-11-18T01:15:36;1.10;;;1.00;;
23206;SDS011;11773;52.570;13.052;2023-11-18T01:18:06;1.50;;;1.40;;
23206;SDS011;11773;52.570;13.052;2023-11-18T01:20:35;1.40;;;1.30;;
23206;SDS011;11773;52.570;13.052;2023-11-18T01:23:05;1.33;;;1.20;;
23206;SDS011;11773;52.570;13.052;2023-11-18T01:25:35;1.43;;;1.33;;
23206;SDS011;11773;52.570;13.052;2023-11-18T01:28:05;1.53;;;1.43;;
23206;SDS011;11773;52.570;13.052;2023-11-18T01:30:36;2.10;;;2.00;;
23206;SDS011;11773;52.570;13.052;2023-11-18T01:33:05;1.20;;;1.10;;
23206;SDS011;11773;52.570;13.052;2023-11-18T01:35:35;1.03;;;1.03;;
23206;SDS011;11773;52.570;13.052;2023-11-18T01:38:05;1.50;;;1.40;;
23206;SDS011;11773;52.570;13.052;2023-11-18T01:40:35;2.10;;;1.90;;
23206;SDS011;11773;52.570;13.052;2023-11-18T01:43:08;1.37;;;1.27;;
23206;SDS011;11773;52.570;13.052;2023-11-18T01:45:41;1.50;;;1.40;;
23206;SDS011;11773;52.570;13.052;2023-11-18T01:48:11;1.47;;;1.37;;
23206;SDS011;11773;52.570;13.052;2023-11-18T01:50:46;1.60;;;1.50;;
23206;SDS011;11773;52.570;13.052;2023-11-18T01:53:14;1.87;;;1.70;;
23206;SDS011;11773;52.570;13.052;2023-11-18T01:55:44;2.50;;;1.80;;
23206;SDS011;11773;52.570;13.052;2023-11-18T01:58:13;1.90;;;1.80;;
23206;SDS011;11773;52.570;13.052;2023-11-18T02:00:45;1.73;;;1.63;;
23206;SDS011;11773;52.570;13.052;2023-11-18T02:03:15;1.67;;;1.57;;
23206;SDS011;11773;52.570;13.052;2023-11-18T02:05:45;1.27;;;1.20;;
23206;SDS011;11773;52.570;13.052;2023-11-18T02:08:15;1.40;;;1.30;;
23206;SDS011;11773;52.570;13.052;2023-11-18T02:10:54;1.40;;;1.30;;
23206;SDS011;11773;52.570;13.052;2023-11-18T02:13:23;1.87;;;1.70;;
23206;SDS011;11773;52.570;13.052;2023-11-18T02:15:56;1.27;;;1.17;;
23206;SDS011;11773;52.570;13.052;2023-11-18T02:18:28;1.73;;;1.60;;
23206;SDS011;11773;52.570;13.052;2023-11-18T02:20:59;1.40;;;1.30;;
23206;SDS011;11773;52.570;13.052;2023-11-18T02:23:31;2.20;;;2.00;;
23206;SDS011;11773;52.570;13.052;2023-11-18T02:26:01;1.90;;;1.80;;
23206;SDS011;11773;52.570;13.052;2023-11-18T02:28:32;2.73;;;1.80;;
23206;SDS011;11773;52.570;13.052;2023-11-18T02:31:05;2.23;;;2.03;;
23206;SDS011;11773;52.570;13.052;2023-11-18T02:33:44;2.07;;;1.87;;
23206;SDS011;11773;52.570;13.052;2023-11-18T02:36:26;2.23;;;2.03;;
23206;SDS011;11773;52.570;13.052;2023-11-18T02:39:08;1.50;;;1.40;;
23206;SDS011;11773;52.570;13.052;2023-11-18T02:41:41;1.70;;;1.60;;
23206;SDS011;11773;52.570;13.052;2023-11-18T02:44:14;1.07;;;1.03;;
23206;SDS011;11773;52.570;13.052;2023-11-18T02:46:47;1.17;;;1.00;;
23206;SDS011;11773;52.570;13.052;2023-11-18T02:49:17;1.00;;;1.00;;
23206;SDS011;11773;52.570;13.052;2023-11-18T02:51:46;1.30;;;1.20;;
23206;SDS011;11773;52.570;13.052;2023-11-18T02:54:16;1.30;;;1.23;;
23206;SDS011;11773;52.570;13.052;2023-11-18T02:56:45;0.93;;;0.93;;
23206;SDS011;11773;52.570;13.052;2023-11-18T02:59:16;1.37;;;1.20;;
23206;SDS011;11773;52.570;13.052;2023-11-18T03:01:45;1.10;;;1.10;;
23206;SDS011;11773;52.570;13.052;2023-11-18T03:04:15;1.50;;;1.40;;
23206;SDS011;11773;52.570;13.052;2023-11-18T03:06:46;1.60;;;1.37;;
23206;SDS011;11773;52.570;13.052;2023-11-18T03:09:15;0.97;;;0.93;;
23206;SDS011;11773;52.570;13.052;2023-11-18T03:11:46;1.23;;;0.80;;
23206;SDS011;11773;52.570;13.052;2023-11-18T03:14:17;1.27;;;1.17;;
23206;SDS011;11773;52.570;13.052;2023-11-18T03:16:46;1.13;;;1.00;;
23206;SDS011;11773;52.570;13.052;2023-11-18T03:19:17;0.70;;;0.70;;
23206;SDS011;11773;52.570;13.052;2023-11-18T03:21:52;1.00;;;0.90;;
23206;SDS011;11773;52.570;13.052;2023-11-18T03:24:23;0.97;;;0.90;;
23206;SDS011;11773;52.570;13.052;2023-11-18T03:26:52;0.87;;;0.87;;
23206;SDS011;11773;52.570;13.052;2023-11-18T03:29:23;0.83;;;0.83;;
23206;SDS011;11773;52.570;13.052;2023-11-18T03:31:52;0.80;;;0.80;;
23206;SDS011;11773;52.570;13.052;2023-11-18T03:34:22;1.10;;;0.90;;
23206;SDS011;11773;52.570;13.052;2023-11-18T03:36:51;0.80;;;0.80;;
23206;SDS011;11773;52.570;13.052;2023-11-18T03:39:23;0.80;;;0.80;;
23206;SDS011;11773;52.570;13.052;2023-11-18T03:41:53;0.83;;;0.83;;
23206;SDS011;11773;52.570;13.052;2023-11-18T03:44:24;1.03;;;0.93;;
23206;SDS011;11773;52.570;13.052;2023-11-18T03:46:54;1.20;;;1.10;;
23206;SDS011;11773;52.570;13.052;2023-11-18T03:49:23;0.87;;;0.87;;
23206;SDS011;11773;52.570;13.052;2023-11-18T03:51:53;0.90;;;0.90;;
23206;SDS011;11773;52.570;13.052;2023-11-18T03:54:22;0.90;;;0.90;;
23206;SDS011;11773;52.570;13.052;2023-11-18T03:56:52;1.43;;;1.30;;
23206;SDS011;11773;52.570;13.052;2023-11-18T03:59:22;1.53;;;1.30;;
23206;SDS011;11773;52.570;13.052;2023-11-18T04:01:52;1.57;;;1.40;;
23206;SDS011;11773;52.570;13.052;2023-11-18T04:04:22;1.40;;;1.30;;
23206;SDS011;11773;52.570;13.052;2023-11-18T04:06:51;1.00;;;1.00;;
23206;SDS011;11773;52.570;13.052;2023-11-18T04:09:21;1.47;;;1.37;;
23206;SDS011;11773;52.570;13.052;2023-11-18T04:11:50;1.47;;;1.37;;
23206;SDS011;11773;52.570;13.052;2023-11-18T04:14:20;1.53;;;1.43;;
23206;SDS011;11773;52.570;13.052;2023-11-18T04:16:50;1.37;;;1.27;;
23206;SDS011;11773;52.570;13.052;2023-11-18T04:19:20;1.30;;;1.20;;
23206;SDS011;11773;52.570;13.052;2023-11-18T04:21:50;1.40;;;1.30;;
23206;SDS011;11773;52.570;13.052;2023-11-18T04:24:19;1.40;;;1.30;;
23206;SDS011;11773;52.570;13.052;2023-11-18T04:26:49;1.30;;;1.20;;
23206;SDS011;11773;52.570;13.052;2023-11-18T04:29:18;1.10;;;1.00;;
23206;SDS011;11773;52.570;13.052;2023-11-18T04:31:50;1.27;;;1.17;;
23206;SDS011;11773;52.570;13.052;2023-11-18T04:34:20;1.20;;;1.10;;
23206;SDS011;11773;52.570;13.052;2023-11-18T04:36:52;1.40;;;1.30;;
23206;SDS011;11773;52.570;13.052;2023-11-18T04:39:21;1.50;;;1.40;;
23206;SDS011;11773;52.570;13.052;2023-11-18T04:41:52;1.70;;;1.60;;
23206;SDS011;11773;52.570;13.052;2023-11-18T04:44:23;1.30;;;1.20;;
23206;SDS011;11773;52.570;13.052;2023-11-18T04:46:54;1.30;;;1.20;;
23206;SDS011;11773;52.570;13.052;2023-11-18T04:49:23;1.30;;;1.20;;
23206;SDS011;11773;52.570;13.052;2023-11-18T04:51:53;1.77;;;1.67;;
23206;SDS011;11773;52.570;13.052;2023-11-18T04:54:23;1.60;;;1.50;;
23206;SDS011;11773;52.570;13.052;2023-11-18T04:56:52;1.53;;;1.43;;
23206;SDS011;11773;52.570;13.052;2023-11-18T04:59:22;1.40;;;1.30;;
23206;SDS011;11773;52.570;13.052;2023-11-18T05:01:51;1.20;;;1.10;;
23206;SDS011;11773;52.570;13.052;2023-11-18T05:04:21;1.50;;;1.30;;
23206;SDS011;11773;52.570;13.052;2023-11-18T05:06:51;1.47;;;1.37;;
23206;SDS011;11773;52.570;13.052;2023-11-18T05:09:20;1.10;;;0.97;;
23206;SDS011;11773;52.570;13.052;2023-11-18T05:14:28;1.23;;;1.13;;
23206;SDS011;11773;52.570;13.052;2023-11-18T05:16:59;1.23;;;1.13;;
23206;SDS011;11773;52.570;13.052;2023-11-18T05:19:31;1.40;;;1.30;;
23206;SDS011;11773;52.570;13.052;2023-11-18T05:22:00;1.57;;;1.37;;
23206;SDS011;11773;52.570;13.052;2023-11-18T05:24:30;1.47;;;1.30;;
23206;SDS011;11773;52.570;13.052;2023-11-18T05:26:59;1.20;;;1.10;;
23206;SDS011;11773;52.570;13.052;2023-11-18T05:29:29;1.50;;;1.40;;
23206;SDS011;11773;52.570;13.052;2023-11-18T05:31:59;1.10;;;1.07;;
23206;SDS011;11773;52.570;13.052;2023-11-18T05:34:29;1.10;;;1.00;;
23206;SDS011;11773;52.570;13.052;2023-11-18T05:36:59;1.30;;;1.20;;
23206;SDS011;11773;52.570;13.052;2023-11-18T05:39:28;1.00;;;1.00;;
23206;SDS011;11773;52.570;13.052;2023-11-18T05:41:58;1.10;;;1.00;;
23206;SDS011;11773;52.570;13.052;2023-11-18T05:44:28;1.23;;;1.13;;
23206;SDS011;11773;52.570;13.052;2023-11-18T05:47:01;0.90;;;0.90;;
23206;SDS011;11773;52.570;13.052;2023-11-18T05:49:31;0.80;;;0.80;;
23206;SDS011;11773;52.570;13.052;2023-11-18T05:52:02;1.07;;;0.97;;
23206;SDS011;11773;52.570;13.052;2023-11-18T05:54:33;0.80;;;0.80;;
23206;SDS011;11773;52.570;13.052;2023-11-18T05:57:03;0.97;;;0.90;;
23206;SDS011;11773;52.570;13.052;2023-11-18T05:59:33;1.13;;;1.03;;
23206;SDS011;11773;52.570;13.052;2023-11-18T06:02:03;1.20;;;1.10;;
23206;SDS011;11773;52.570;13.052;2023-11-18T06:04:33;0.90;;;0.90;;
23206;SDS011;11773;52.570;13.052;2023-11-18T06:07:03;0.63;;;0.63;;
23206;SDS011;11773;52.570;13.052;2023-11-18T06:09:33;1.10;;;1.00;;
23206;SDS011;11773;52.570;13.052;2023-11-18T06:12:02;1.20;;;1.10;;
23206;SDS011;11773;52.570;13.052;2023-11-18T06:14:34;1.07;;;1.00;;
23206;SDS011;11773;52.570;13.052;2023-11-18T06:17:05;1.17;;;1.07;;
23206;SDS011;11773;52.570;13.052;2023-11-18T06:19:35;1.03;;;1.00;;
23206;SDS011;11773;52.570;13.052;2023-11-18T06:22:05;1.27;;;1.17;;
23206;SDS011;11773;52.570;13.052;2023-11-18T06:24:35;1.27;;;1.17;;
23206;SDS011;11773;52.570;13.052;2023-11-18T06:27:06;1.40;;;1.30;;
23206;SDS011;11773;52.570;13.052;2023-11-18T06:29:37;1.00;;;1.00;;
23206;SDS011;11773;52.570;13.052;2023-11-18T06:32:07;1.07;;;1.00;;
23206;SDS011;11773;52.570;13.052;2023-11-18T06:34:37;1.40;;;1.20;;
23206;SDS011;11773;52.570;13.052;2023-11-18T06:37:06;0.90;;;0.90;;
23206;SDS011;11773;52.570;13.052;2023-11-18T06:39:40;1.50;;;1.40;;
23206;SDS011;11773;52.570;13.052;2023-11-18T06:42:12;1.20;;;1.10;;
23206;SDS011;11773;52.570;13.052;2023-11-18T06:44:42;1.30;;;1.20;;
23206;SDS011;11773;52.570;13.052;2023-11-18T06:47:11;1.33;;;1.23;;
23206;SDS011;11773;52.570;13.052;2023-11-18T06:49:41;2.17;;;1.40;;
23206;SDS011;11773;52.570;13.052;2023-11-18T06:52:11;1.30;;;1.20;;
23206;SDS011;11773;52.570;13.052;2023-11-18T06:54:41;0.97;;;0.90;;
23206;SDS011;11773;52.570;13.052;2023-11-18T06:57:10;1.30;;;1.20;;
23206;SDS011;11773;52.570;13.052;2023-11-18T06:59:40;1.20;;;1.10;;
23206;SDS011;11773;52.570;13.052;2023-11-18T07:02:09;1.10;;;1.00;;
23206;SDS011;11773;52.570;13.052;2023-11-18T07:04:39;1.30;;;1.20;;
23206;SDS011;11773;52.570;13.052;2023-11-18T07:07:09;1.40;;;1.30;;
23206;SDS011;11773;52.570;13.052;2023-11-18T07:09:39;1.23;;;1.13;;
23206;SDS011;11773;52.570;13.052;2023-11-18T07:12:11;1.87;;;1.77;;
23206;SDS011;11773;52.570;13.052;2023-11-18T07:14:40;1.60;;;1.50;;
23206;SDS011;11773;52.570;13.052;2023-11-18T07:17:10;1.43;;;1.33;;
23206;SDS011;11773;52.570;13.052;2023-11-18T07:19:39;1.73;;;1.63;;
23206;SDS011;11773;52.570;13.052;2023-11-18T07:22:11;2.07;;;1.83;;
23206;SDS011;11773;52.570;13.052;2023-11-18T07:24:41;2.10;;;1.90;;
23206;SDS011;11773;52.570;13.052;2023-11-18T07:27:11;1.80;;;1.70;;
23206;SDS011;11773;52.570;13.052;2023-11-18T07:29:41;1.60;;;1.50;;
23206;SDS011;11773;52.570;13.052;2023-11-18T07:32:12;1.53;;;1.43;;
23206;SDS011;11773;52.570;13.052;2023-11-18T07:34:41;2.20;;;2.00;;
23206;SDS011;11773;52.570;13.052;2023-11-18T07:37:12;1.63;;;1.53;;
23206;SDS011;11773;52.570;13.052;2023-11-18T07:39:41;1.80;;;1.50;;
23206;SDS011;11773;52.570;13.052;2023-11-18T07:42:15;1.80;;;1.70;;
23206;SDS011;11773;52.570;13.052;2023-11-18T07:44:45;1.70;;;1.60;;
23206;SDS011;11773;52.570;13.052;2023-11-18T07:47:15;1.77;;;1.67;;
23206;SDS011;11773;52.570;13.052;2023-11-18T07:49:46;2.20;;;1.83;;
23206;SDS011;11773;52.570;13.052;2023-11-18T07:52:16;2.63;;;2.37;;
23206;SDS011;11773;52.570;13.052;2023-11-18T07:54:46;2.33;;;2.10;;
23206;SDS011;11773;52.570;13.052;2023-11-18T07:57:17;2.60;;;2.20;;
23206;SDS011;11773;52.570;13.052;2023-11-18T07:59:47;2.30;;;2.10;;
23206;SDS011;11773;52.570;13.052;2023-11-18T08:02:16;1.80;;;1.63;;
23206;SDS011;11773;52.570;13.052;2023-11-18T08:04:47;1.50;;;1.40;;
23206;SDS011;11773;52.570;13.052;2023-11-18T08:07:16;2.00;;;1.77;;
23206;SDS011;11773;52.570;13.052;2023-11-18T08:09:46;1.70;;;1.60;;
23206;SDS011;11773;52.570;13.052;2023-11-18T08:12:16;2.00;;;1.80;;
23206;SDS011;11773;52.570;13.052;2023-11-18T08:14:45;1.67;;;1.57;;
23206;SDS011;11773;52.570;13.052;2023-11-18T08:17:15;1.73;;;1.63;;
23206;SDS011;11773;52.570;13.052;2023-11-18T08:19:45;1.70;;;1.43;;
23206;SDS011;11773;52.570;13.052;2023-11-18T08:22:14;2.10;;;1.90;;
23206;SDS011;11773;52.570;13.052;2023-11-18T08:24:46;3.90;;;2.10;;
23206;SDS011;11773;52.570;13.052;2023-11-18T08:27:17;2.00;;;1.80;;
23206;SDS011;11773;52.570;13.052;2023-11-18T08:29:47;2.07;;;1.87;;
23206;SDS011;11773;52.570;13.052;2023-11-18T08:32:16;1.90;;;1.80;;
23206;SDS011;11773;52.570;13.052;2023-11-18T08:34:46;2.47;;;1.97;;
23206;SDS011;11773;52.570;13.052;2023-11-18T08:37:18;1.63;;;1.53;;
23206;SDS011;11773;52.570;13.052;2023-11-18T08:39:48;2.40;;;1.77;;
23206;SDS011;11773;52.570;13.052;2023-11-18T08:42:18;2.10;;;1.90;;
23206;SDS011;11773;52.570;13.052;2023-11-18T08:44:47;2.33;;;1.90;;
23206;SDS011;11773;52.570;13.052;2023-11-18T08:47:17;2.23;;;2.03;;
23206;SDS011;11773;52.570;13.052;2023-11-18T08:49:47;3.23;;;2.47;;
23206;SDS011;11773;52.570;13.052;2023-11-18T08:52:16;2.73;;;2.40;;
23206;SDS011;11773;52.570;13.052;2023-11-18T08:54:46;2.47;;;2.27;;
23206;SDS011;11773;52.570;13.052;2023-11-18T08:57:34;2.87;;;2.00;;
23206;SDS011;11773;52.570;13.052;2023-11-18T09:00:06;3.10;;;2.40;;
23206;SDS011;11773;52.570;13.052;2023-11-18T09:02:39;2.77;;;2.30;;
23206;SDS011;11773;52.570;13.052;2023-11-18T09:05:12;2.60;;;2.20;;
23206;SDS011;11773;52.570;13.052;2023-11-18T09:07:41;2.97;;;2.67;;
23206;SDS011;11773;52.570;13.052;2023-11-18T09:10:13;2.40;;;2.20;;
23206;SDS011;11773;52.570;13.052;2023-11-18T09:12:44;2.70;;;2.33;;
23206;SDS011;11773;52.570;13.052;2023-11-18T09:15:16;2.73;;;2.47;;
23206;SDS011;11773;52.570;13.052;2023-11-18T09:17:47;2.77;;;2.20;;
23206;SDS011;11773;52.570;13.052;2023-11-18T09:20:20;2.60;;;2.40;;
23206;SDS011;11773;52.570;13.052;2023-11-18T09:22:49;2.03;;;1.83;;
23206;SDS011;11773;52.570;13.052;2023-11-18T09:25:21;2.20;;;1.90;;
23206;SDS011;11773;52.570;13.052;2023-11-18T09:27:50;1.57;;;1.47;;
23206;SDS011;11773;52.570;13.052;2023-11-18T09:30:20;1.80;;;1.70;;
23206;SDS011;11773;52.570;13.052;2023-11-18T09:32:51;2.40;;;2.20;;
23206;SDS011;11773;52.570;13.052;2023-11-18T09:35:21;2.33;;;2.13;;
23206;SDS011;11773;52.570;13.052;2023-11-18T09:37:51;2.30;;;2.10;;
23206;SDS011;11773;52.570;13.052;2023-11-18T09:40:20;2.37;;;2.00;;
23206;SDS011;11773;52.570;13.052;2023-11-18T09:42:56;2.70;;;2.37;;
23206;SDS011;11773;52.570;13.052;2023-11-18T09:45:27;2.87;;;2.57;;
23206;SDS011;11773;52.570;13.052;2023-11-18T09:47:58;2.13;;;1.80;;
23206;SDS011;11773;52.570;13.052;2023-11-18T09:50:33;2.07;;;1.87;;
23206;SDS011;11773;52.570;13.052;2023-11-18T09:53:08;2.20;;;2.00;;
23206;SDS011;11773;52.570;13.052;2023-11-18T09:55:43;2.23;;;1.97;;
23206;SDS011;11773;52.570;13.052;2023-11-18T09:58:26;4.77;;;4.00;;
23206;SDS011;11773;52.570;13.052;2023-11-18T10:01:00;3.30;;;3.00;;
23206;SDS011;11773;52.570;13.052;2023-11-18T10:03:31;2.40;;;2.20;;
23206;SDS011;11773;52.570;13.052;2023-11-18T10:06:04;2.33;;;2.13;;
23206;SDS011;11773;52.570;13.052;2023-11-18T10:08:36;2.37;;;2.17;;
23206;SDS011;11773;52.570;13.052;2023-11-18T10:11:06;2.00;;;1.77;;
23206;SDS011;11773;52.570;13.052;2023-11-18T10:13:36;2.13;;;1.93;;
23206;SDS011;11773;52.570;13.052;2023-11-18T10:16:08;1.80;;;1.70;;
23206;SDS011;11773;52.570;13.052;2023-11-18T10:18:38;2.00;;;1.80;;
23206;SDS011;11773;52.570;13.052;2023-11-18T10:21:09;1.93;;;1.63;;
23206;SDS011;11773;52.570;13.052;2023-11-18T10:23:42;2.13;;;1.93;;
23206;SDS011;11773;52.570;13.052;2023-11-18T10:26:32;2.60;;;2.40;;
23206;SDS011;11773;52.570;13.052;2023-11-18T10:29:02;2.60;;;2.40;;
23206;SDS011;11773;52.570;13.052;2023-11-18T10:31:34;2.30;;;2.10;;
23206;SDS011;11773;52.570;13.052;2023-11-18T10:34:06;2.40;;;2.17;;
23206;SDS011;11773;52.570;13.052;2023-11-18T10:36:38;1.70;;;1.60;;
23206;SDS011;11773;52.570;13.052;2023-11-18T10:39:10;2.87;;;2.43;;
23206;SDS011;11773;52.570;13.052;2023-11-18T10:41:43;2.50;;;2.30;;
23206;SDS011;11773;52.570;13.052;2023-11-18T10:44:14;3.50;;;2.73;;
23206;SDS011;11773;52.570;13.052;2023-11-18T10:46:51;2.73;;;2.53;;
23206;SDS011;11773;52.570;13.052;2023-11-18T10:49:22;2.60;;;2.30;;
23206;SDS011;11773;52.570;13.052;2023-11-18T10:51:51;2.13;;;1.80;;
23206;SDS011;11773;52.570;13.052;2023-11-18T10:54:21;2.07;;;1.73;;
23206;SDS011;11773;52.570;13.052;2023-11-18T10:56:53;2.47;;;2.10;;
23206;SDS011;11773;52.570;13.052;2023-11-18T10:59:25;2.60;;;2.10;;
23206;SDS011;11773;52.570;13.052;2023-11-18T11:01:55;1.93;;;1.70;;
23206;SDS011;11773;52.570;13.052;2023-11-18T11:04:25;2.27;;;2.07;;
23206;SDS011;11773;52.570;13.052;2023-11-18T11:06:56;2.40;;;2.20;;
23206;SDS011;11773;52.570;13.052;2023-11-18T11:09:28;2.87;;;2.57;;
23206;SDS011;11773;52.570;13.052;2023-11-18T11:11:59;2.60;;;2.40;;
23206;SDS011;11773;52.570;13.052;2023-11-18T11:14:33;1.90;;;1.67;;
23206;SDS011;11773;52.570;13.052;2023-11-18T11:17:08;2.23;;;1.63;;
23206;SDS011;11773;52.570;13.052;2023-11-18T11:19:54;2.30;;;1.80;;
23206;SDS011;11773;52.570;13.052;2023-11-18T11:22:56;2.87;;;1.70;;
23206;SDS011;11773;52.570;13.052;2023-11-18T11:28:28;3.57;;;2.83;;
23206;SDS011;11773;52.570;13.052;2023-11-18T11:31:09;2.80;;;2.27;;
23206;SDS011;11773;52.570;13.052;2023-11-18T11:34:06;2.33;;;2.10;;
23206;SDS011;11773;52.570;13.052;2023-11-18T11:36:50;2.27;;;2.03;;
23206;SDS011;11773;52.570;13.052;2023-11-18T11:39:22;1.80;;;1.70;;
23206;SDS011;11773;52.570;13.052;2023-11-18T11:41:56;1.77;;;1.57;;
23206;SDS011;11773;52.570;13.052;2023-11-18T11:44:26;1.37;;;1.27;;
23206;SDS011;11773;52.570;13.052;2023-11-18T11:46:58;2.00;;;1.80;;
23206;SDS011;11773;52.570;13.052;2023-11-18T11:49:45;2.03;;;1.77;;
23206;SDS011;11773;52.570;13.052;2023-11-18T11:52:25;2.37;;;2.10;;
23206;SDS011;11773;52.570;13.052;2023-11-18T11:55:05;2.47;;;2.17;;
23206;SDS011;11773;52.570;13.052;2023-11-18T11:57:57;2.07;;;1.80;;
23206;SDS011;11773;52.570;13.052;2023-11-18T12:00:27;2.97;;;2.40;;
23206;SDS011;11773;52.570;13.052;2023-11-18T12:02:58;2.30;;;2.10;;
23206;SDS011;11773;52.570;13.052;2023-11-18T12:05:32;3.40;;;3.10;;
23206;SDS011;11773;52.570;13.052;2023-11-18T12:08:02;4.03;;;3.40;;
23206;SDS011;11773;52.570;13.052;2023-11-18T12:10:37;4.57;;;3.60;;
23206;SDS011;11773;52.570;13.052;2023-11-18T12:13:08;3.17;;;2.77;;
23206;SDS011;11773;52.570;13.052;2023-11-18T12:15:50;3.13;;;2.53;;
23206;SDS011;11773;52.570;13.052;2023-11-18T12:18:28;2.30;;;2.10;;
23206;SDS011;11773;52.570;13.052;2023-11-18T12:21:02;3.07;;;2.67;;
23206;SDS011;11773;52.570;13.052;2023-11-18T12:23:32;2.37;;;2.17;;
23206;SDS011;11773;52.570;13.052;2023-11-18T12:26:31;2.90;;;2.40;;
23206;SDS011;11773;52.570;13.052;2023-11-18T12:28:37;2.00;;;1.70;;
23206;SDS011;11773;52.570;13.052;2023-11-18T12:31:10;2.27;;;2.00;;
23206;SDS011;11773;52.570;13.052;2023-11-18T12:36:37;2.30;;;2.10;;
23206;SDS011;11773;52.570;13.052;2023-11-18T12:39:28;1.83;;;1.70;;
23206;SDS011;11773;52.570;13.052;2023-11-18T12:42:20;1.93;;;1.70;;
23206;SDS011;11773;52.570;13.052;2023-11-18T12:45:23;2.30;;;1.90;;
23206;SDS011;11773;52.570;13.052;2023-11-18T12:47:51;3.03;;;2.70;;
23206;SDS011;11773;52.570;13.052;2023-11-18T12:50:25;2.97;;;2.63;;
23206;SDS011;11773;52.570;13.052;2023-11-18T12:52:56;3.00;;;2.70;;
23206;SDS011;11773;52.570;13.052;2023-11-18T12:55:26;2.93;;;2.60;;
23206;SDS011;11773;52.570;13.052;2023-11-18T12:58:03;3.03;;;2.57;;
23206;SDS011;11773;52.570;13.052;2023-11-18T13:00:31;1.93;;;1.73;;
23206;SDS011;11773;52.570;13.052;2023-11-18T13:03:02;2.47;;;2.00;;
23206;SDS011;11773;52.570;13.052;2023-11-18T13:05:34;1.60;;;1.50;;
23206;SDS011;11773;52.570;13.052;2023-11-18T13:08:04;1.53;;;1.43;;
23206;SDS011;11773;52.570;13.052;2023-11-18T13:10:34;1.50;;;1.40;;
23206;SDS011;11773;52.570;13.052;2023-11-18T13:13:04;1.53;;;1.30;;
23206;SDS011;11773;52.570;13.052;2023-11-18T13:15:35;1.67;;;1.57;;
23206;SDS011;11773;52.570;13.052;2023-11-18T13:18:04;1.40;;;1.30;;
23206;SDS011;11773;52.570;13.052;2023-11-18T13:20:34;2.50;;;2.17;;
23206;SDS011;11773;52.570;13.052;2023-11-18T13:23:04;2.70;;;2.50;;
23206;SDS011;11773;52.570;13.052;2023-11-18T13:25:39;2.70;;;2.10;;
23206;SDS011;11773;52.570;13.052;2023-11-18T13:28:09;2.53;;;2.33;;
23206;SDS011;11773;52.570;13.052;2023-11-18T13:30:40;1.80;;;1.70;;
23206;SDS011;11773;52.570;13.052;2023-11-18T13:33:12;1.53;;;1.43;;
23206;SDS011;11773;52.570;13.052;2023-11-18T13:35:41;1.40;;;1.30;;
23206;SDS011;11773;52.570;13.052;2023-11-18T13:38:15;0.93;;;0.93;;
23206;SDS011;11773;52.570;13.052;2023-11-18T13:40:45;1.30;;;1.20;;
23206;SDS011;11773;52.570;13.052;2023-11-18T13:43:16;1.70;;;1.40;;
23206;SDS011;11773;52.570;13.052;2023-11-18T13:45:58;1.70;;;1.60;;
23206;SDS011;11773;52.570;13.052;2023-11-18T13:48:21;1.40;;;1.30;;
23206;SDS011;11773;52.570;13.052;2023-11-18T13:50:51;1.80;;;1.60;;
23206;SDS011;11773;52.570;13.052;2023-11-18T13:53:21;1.30;;;1.20;;
23206;SDS011;11773;52.570;13.052;2023-11-18T13:55:52;1.20;;;1.10;;
23206;SDS011;11773;52.570;13.052;2023-11-18T13:58:22;1.23;;;1.13;;
23206;SDS011;11773;52.570;13.052;2023-11-18T14:00:51;0.80;;;0.80;;
23206;SDS011;11773;52.570;13.052;2023-11-18T14:03:22;0.70;;;0.70;;
23206;SDS011;11773;52.570;13.052;2023-11-18T14:05:57;0.70;;;0.70;;
23206;SDS011;11773;52.570;13.052;2023-11-18T14:08:28;0.80;;;0.80;;
23206;SDS011;11773;52.570;13.052;2023-11-18T14:10:58;1.20;;;1.10;;
23206;SDS011;11773;52.570;13.052;2023-11-18T14:13:29;1.00;;;0.87;;
23206;SDS011;11773;52.570;13.052;2023-11-18T14:16:01;0.70;;;0.70;;
23206;SDS011;11773;52.570;13.052;2023-11-18T14:18:33;0.90;;;0.90;;
23206;SDS011;11773;52.570;13.052;2023-11-18T14:21:03;0.70;;;0.70;;
23206;SDS011;11773;52.570;13.052;2023-11-18T14:23:33;1.03;;;0.90;;
23206;SDS011;11773;52.570;13.052;2023-11-18T14:26:04;0.63;;;0.63;;
23206;SDS011;11773;52.570;13.052;2023-11-18T14:28:37;2.13;;;1.70;;
23206;SDS011;11773;52.570;13.052;2023-11-18T14:31:07;1.97;;;1.30;;
23206;SDS011;11773;52.570;13.052;2023-11-18T14:33:38;1.27;;;1.17;;
23206;SDS011;11773;52.570;13.052;2023-11-18T14:36:07;1.60;;;1.33;;
23206;SDS011;11773;52.570;13.052;2023-11-18T14:38:38;1.20;;;1.10;;
23206;SDS011;11773;52.570;13.052;2023-11-18T14:41:07;1.63;;;1.53;;
23206;SDS011;11773;52.570;13.052;2023-11-18T14:43:37;2.43;;;1.67;;
23206;SDS011;11773;52.570;13.052;2023-11-18T14:46:08;1.47;;;1.37;;
23206;SDS011;11773;52.570;13.052;2023-11-18T14:48:38;1.60;;;1.50;;
23206;SDS011;11773;52.570;13.052;2023-11-18T14:51:09;1.63;;;1.50;;
23206;SDS011;11773;52.570;13.052;2023-11-18T14:53:39;1.80;;;1.70;;
23206;SDS011;11773;52.570;13.052;2023-11-18T14:56:10;1.90;;;1.70;;
23206;SDS011;11773;52.570;13.052;2023-11-18T14:58:40;2.60;;;2.40;;
23206;SDS011;11773;52.570;13.052;2023-11-18T15:01:10;2.10;;;1.90;;
23206;SDS011;11773;52.570;13.052;2023-11-18T15:03:39;2.53;;;2.20;;
23206;SDS011;11773;52.570;13.052;2023-11-18T15:06:09;4.47;;;4.00;;